createdAt,value
2022-10-17T00:01:25.693Z,101756.59
2022-10-17T00:03:52.197Z,101764.00
2022-10-17T00:06:18.677Z,101769.16
2022-10-17T00:08:45.361Z,101754.25
2022-10-17T00:11:20.521Z,101758.00
2022-10-17T00:13:49.111Z,101758.47
2022-10-17T00:16:23.580Z,101761.09
2022-10-17T00:18:50.105Z,101761.06
2022-10-17T00:21:18.671Z,101757.66
2022-10-17T00:23:45.760Z,101771.88
2022-10-17T00:26:12.488Z,101756.22
2022-10-17T00:28:39.100Z,101759.72
2022-10-17T00:31:07.056Z,101760.66
2022-10-17T00:33:35.153Z,101758.81
2022-10-17T00:36:07.574Z,101765.13
2022-10-17T00:38:34.718Z,101777.44
2022-10-17T00:41:01.524Z,101790.75
2022-10-17T00:43:29.659Z,101780.47
2022-10-17T00:45:56.758Z,101779.53
2022-10-17T00:48:25.058Z,101779.91
2022-10-17T00:50:51.567Z,101773.44
2022-10-17T00:53:18.686Z,101768.00
2022-10-17T00:55:48.921Z,101766.50
2022-10-17T00:58:15.853Z,101761.44
2022-10-17T01:00:43.268Z,101757.97
2022-10-17T01:03:09.806Z,101760.47
2022-10-17T01:05:37.069Z,101756.78
2022-10-17T01:08:04.121Z,101745.22
2022-10-17T01:10:34.420Z,101753.03
2022-10-17T01:13:31.279Z,101756.94
2022-10-17T01:16:08.826Z,101762.00
2022-10-17T01:19:01.137Z,101758.75
2022-10-17T01:21:35.767Z,101745.03
2022-10-17T01:24:24.249Z,101753.75
2022-10-17T01:27:10.912Z,101757.09
2022-10-17T01:30:05.931Z,101752.75
2022-10-17T01:32:45.963Z,101748.44
2022-10-17T01:35:28.704Z,101762.56
2022-10-17T01:38:06.638Z,101752.09
2022-10-17T01:40:37.987Z,101759.13
2022-10-17T01:43:13.250Z,101758.81
2022-10-17T01:45:53.492Z,101748.72
2022-10-17T01:48:23.977Z,101738.00
2022-10-17T01:51:12.851Z,101727.44
2022-10-17T01:53:47.611Z,101722.47
2022-10-17T01:56:14.623Z,101725.25
2022-10-17T01:58:49.354Z,101719.75
2022-10-17T02:01:16.210Z,101722.66
2022-10-17T02:03:43.881Z,101720.25
2022-10-17T02:06:10.334Z,101724.22
2022-10-17T02:08:45.583Z,101724.44
2022-10-17T02:11:17.015Z,101724.56
2022-10-17T02:13:58.775Z,101723.28
2022-10-17T02:16:48.585Z,101725.22
2022-10-17T02:19:26.268Z,101725.53
2022-10-17T02:22:27.662Z,101722.13
2022-10-17T02:25:09.128Z,101724.69
2022-10-17T02:27:35.559Z,101730.59
2022-10-17T02:30:36.589Z,101723.75
2022-10-17T02:33:31.083Z,101730.97
2022-10-17T02:36:05.849Z,101717.97
2022-10-17T02:38:32.548Z,101717.78
2022-10-17T02:40:59.328Z,101708.81
2022-10-17T02:43:25.871Z,101698.34
2022-10-17T02:45:52.924Z,101686.84
2022-10-17T02:48:25.080Z,101701.72
2022-10-17T02:51:07.071Z,101689.53
2022-10-17T02:53:38.997Z,101696.78
2022-10-17T02:56:10.690Z,101688.91
2022-10-17T02:58:38.818Z,101685.59
2022-10-17T03:01:05.517Z,101670.44
2022-10-17T03:03:32.759Z,101678.47
2022-10-17T03:05:59.221Z,101687.13
2022-10-17T03:08:25.744Z,101681.06
2022-10-17T03:10:52.334Z,101686.13
2022-10-17T03:13:19.052Z,101689.75
2022-10-17T03:15:45.509Z,101682.38
2022-10-17T03:18:12.200Z,101683.47
2022-10-17T03:20:38.653Z,101687.84
2022-10-17T03:23:05.121Z,101681.44
2022-10-17T03:25:31.557Z,101682.09
2022-10-17T03:28:00.313Z,101684.88
2022-10-17T03:30:27.317Z,101677.38
2022-10-17T03:32:53.772Z,101672.34
2022-10-17T03:35:20.262Z,101661.97
2022-10-17T03:37:46.689Z,101661.84
2022-10-17T03:40:13.182Z,101658.75
2022-10-17T03:42:39.638Z,101648.88
2022-10-17T03:45:06.380Z,101651.41
2022-10-17T03:47:32.996Z,101657.47
2022-10-17T03:49:59.666Z,101661.06
2022-10-17T03:52:26.177Z,101655.34
2022-10-17T03:54:52.719Z,101651.06
2022-10-17T03:57:19.644Z,101657.66
2022-10-17T03:59:46.128Z,101655.06
2022-10-17T04:02:12.597Z,101637.84
2022-10-17T04:04:39.073Z,101637.06
2022-10-17T04:07:05.535Z,101635.44
2022-10-17T04:09:31.992Z,101635.81
2022-10-17T04:11:58.428Z,101632.81
2022-10-17T04:14:24.916Z,101626.00
2022-10-17T04:16:51.432Z,101631.28
2022-10-17T04:19:17.873Z,101626.84
2022-10-17T04:21:44.317Z,101630.47
2022-10-17T04:24:11.825Z,101623.47
2022-10-17T04:26:38.284Z,101622.53
2022-10-17T04:29:04.781Z,101620.00
2022-10-17T04:31:31.591Z,101619.16
2022-10-17T04:33:58.080Z,101618.28
2022-10-17T04:36:24.673Z,101613.16
2022-10-17T04:38:51.125Z,101621.75
2022-10-17T04:41:18.824Z,101618.34
2022-10-17T04:43:48.535Z,101614.81
2022-10-17T04:46:17.673Z,101611.28
2022-10-17T04:48:44.229Z,101608.50
2022-10-17T04:51:15.892Z,101606.13
2022-10-17T04:53:43.397Z,101602.66
2022-10-17T04:56:12.162Z,101608.72
2022-10-17T04:58:39.572Z,101615.81
2022-10-17T05:01:11.129Z,101613.19
2022-10-17T05:03:38.069Z,101610.31
2022-10-17T05:06:15.489Z,101606.94
2022-10-17T05:08:42.612Z,101604.19
2022-10-17T05:11:21.949Z,101595.63
2022-10-17T05:13:56.428Z,101594.84
2022-10-17T05:16:24.436Z,101586.63
2022-10-17T05:18:53.037Z,101593.88
2022-10-17T05:21:20.547Z,101584.13
2022-10-17T05:23:47.046Z,101590.06
2022-10-17T05:26:14.153Z,101591.06
2022-10-17T05:28:40.781Z,101587.47
2022-10-17T05:31:08.517Z,101580.47
2022-10-17T05:33:35.438Z,101583.97
2022-10-17T05:36:01.979Z,101575.28
2022-10-17T05:38:28.446Z,101575.00
2022-10-17T05:40:58.948Z,101580.97
2022-10-17T05:43:26.065Z,101575.13
2022-10-17T05:45:52.919Z,101575.13
2022-10-17T05:48:19.602Z,101573.47
2022-10-17T05:50:46.123Z,101569.00
2022-10-17T05:53:12.596Z,101569.03
2022-10-17T05:55:39.053Z,101572.38
2022-10-17T05:58:05.487Z,101573.41
2022-10-17T06:00:32.068Z,101568.56
2022-10-17T06:02:58.577Z,101566.22
2022-10-17T06:05:25.302Z,101559.41
2022-10-17T06:07:55.988Z,101562.84
2022-10-17T06:10:24.753Z,101551.53
2022-10-17T06:12:51.170Z,101563.63
2022-10-17T06:15:17.718Z,101561.94
2022-10-17T06:17:44.159Z,101555.22
2022-10-17T06:20:10.856Z,101565.66
2022-10-17T06:22:37.300Z,101564.63
2022-10-17T06:25:04.017Z,101567.53
2022-10-17T06:27:30.482Z,101574.63
2022-10-17T06:29:56.944Z,101579.81
2022-10-17T06:32:23.366Z,101573.75
2022-10-17T06:34:49.834Z,101572.97
2022-10-17T06:37:16.261Z,101565.94
2022-10-17T06:39:42.820Z,101566.78
2022-10-17T06:42:09.244Z,101564.38
2022-10-17T06:44:35.717Z,101565.41
2022-10-17T06:47:02.277Z,101575.69
2022-10-17T06:49:28.813Z,101571.50
2022-10-17T06:51:55.556Z,101570.56
2022-10-17T06:54:21.995Z,101574.94
2022-10-17T06:56:48.513Z,101573.19
2022-10-17T06:59:15.686Z,101568.94
2022-10-17T07:01:46.090Z,101561.13
2022-10-17T07:04:13.893Z,101570.88
2022-10-17T07:06:40.483Z,101577.13
2022-10-17T07:09:07.075Z,101582.38
2022-10-17T07:11:35.214Z,101589.13
2022-10-17T07:14:02.113Z,101582.44
2022-10-17T07:16:28.641Z,101572.94
2022-10-17T07:18:55.497Z,101566.69
2022-10-17T07:21:22.244Z,101571.16
2022-10-17T07:23:48.687Z,101587.88
2022-10-17T07:26:17.381Z,101589.59
2022-10-17T07:28:45.724Z,101595.78
2022-10-17T07:31:15.665Z,101590.59
2022-10-17T07:33:43.006Z,101581.78
2022-10-17T07:36:09.684Z,101576.53
2022-10-17T07:38:36.414Z,101578.31
2022-10-17T07:41:04.930Z,101580.97
2022-10-17T07:43:31.935Z,101590.63
2022-10-17T07:45:58.450Z,101588.88
2022-10-17T07:48:25.116Z,101585.44
2022-10-17T07:50:51.562Z,101571.41
2022-10-17T07:53:18.431Z,101574.13
2022-10-17T07:55:46.363Z,101570.63
2022-10-17T07:58:13.512Z,101565.34
2022-10-17T08:00:40.351Z,101574.13
2022-10-17T08:03:07.045Z,101573.19
2022-10-17T08:05:33.941Z,101562.66
2022-10-17T08:08:00.704Z,101561.66
2022-10-17T08:10:29.977Z,101559.91
2022-10-17T08:12:57.519Z,101555.41
2022-10-17T08:15:29.383Z,101561.66
2022-10-17T08:17:59.181Z,101557.88
2022-10-17T08:20:25.741Z,101555.38
2022-10-17T08:22:56.145Z,101551.72
2022-10-17T08:25:23.182Z,101557.84
2022-10-17T08:27:49.957Z,101559.72
2022-10-17T08:30:17.105Z,101560.78
2022-10-17T08:32:43.671Z,101559.81
2022-10-17T08:35:10.341Z,101559.88
2022-10-17T08:37:36.982Z,101552.72
2022-10-17T08:40:04.285Z,101549.19
2022-10-17T08:43:35.730Z,101545.56
2022-10-17T08:46:05.572Z,101544.63
2022-10-17T08:48:37.004Z,101533.16
2022-10-17T08:51:11.044Z,101525.38
2022-10-17T08:53:50.033Z,101520.88
2022-10-17T08:56:25.165Z,101524.28
2022-10-17T08:59:06.372Z,101530.44
2022-10-17T09:01:39.617Z,101526.94
2022-10-17T09:04:12.093Z,101511.03
2022-10-17T09:06:42.192Z,101521.34
2022-10-17T09:09:14.696Z,101514.00
2022-10-17T09:11:47.180Z,101513.75
2022-10-17T09:14:35.065Z,101510.81
2022-10-17T09:17:39.245Z,101510.56
2022-10-17T09:20:17.853Z,101507.25
2022-10-17T09:22:50.044Z,101518.16
2022-10-17T09:25:18.584Z,101503.59
2022-10-17T09:28:05.019Z,101508.31
2022-10-17T09:30:46.397Z,101516.91
2022-10-17T09:33:34.582Z,101528.75
2022-10-17T09:36:09.507Z,101525.47
2022-10-17T09:39:13.089Z,101533.22
2022-10-17T09:41:57.143Z,101534.25
2022-10-17T09:44:47.948Z,101534.97
2022-10-17T09:47:30.161Z,101541.56
2022-10-17T09:49:57.043Z,101543.47
2022-10-17T09:52:33.823Z,101534.84
2022-10-17T09:55:03.161Z,101537.09
2022-10-17T09:58:02.449Z,101539.84
2022-10-17T10:00:38.000Z,101535.25
2022-10-17T10:03:16.190Z,101541.81
2022-10-17T10:05:44.044Z,101539.84
2022-10-17T10:08:16.163Z,101539.72
2022-10-17T10:10:43.725Z,101534.84
2022-10-17T10:13:13.187Z,101547.13
2022-10-17T10:15:50.459Z,101541.44
2022-10-17T10:18:26.109Z,101532.34
2022-10-17T10:21:15.829Z,101530.66
2022-10-17T10:23:44.118Z,101524.59
2022-10-17T10:26:25.928Z,101533.91
2022-10-17T10:28:55.504Z,101545.31
2022-10-17T10:31:30.920Z,101537.53
2022-10-17T10:33:59.600Z,101534.22
2022-10-17T10:36:26.272Z,101547.03
2022-10-17T10:38:58.332Z,101546.25
2022-10-17T10:41:27.792Z,101556.38
2022-10-17T10:43:55.015Z,101548.75
2022-10-17T10:46:28.553Z,101543.84
2022-10-17T10:48:59.691Z,101542.94
2022-10-17T10:51:35.520Z,101540.19
2022-10-17T10:54:01.971Z,101532.50
2022-10-17T10:56:49.796Z,101541.72
2022-10-17T10:59:41.047Z,101544.50
2022-10-17T11:02:07.436Z,101540.84
2022-10-17T11:04:40.086Z,101550.28
2022-10-17T11:07:11.636Z,101553.66
2022-10-17T11:10:01.266Z,101554.03
2022-10-17T11:12:32.758Z,101543.75
2022-10-17T11:15:09.643Z,101554.00
2022-10-17T11:17:45.657Z,101564.88
2022-10-17T11:20:18.532Z,101559.25
2022-10-17T11:22:48.688Z,101559.91
2022-10-17T11:25:36.007Z,101569.66
2022-10-17T11:28:05.335Z,101571.78
2022-10-17T11:31:03.362Z,101573.03
2022-10-17T11:34:03.370Z,101569.69
2022-10-17T11:36:35.096Z,101553.59
2022-10-17T11:39:04.653Z,101549.22
2022-10-17T11:41:40.297Z,101556.63
2022-10-17T11:44:25.093Z,101565.72
2022-10-17T11:46:57.633Z,101582.63
2022-10-17T11:49:36.870Z,101589.78
2022-10-17T11:52:37.393Z,101586.34
2022-10-17T11:55:13.541Z,101570.81
2022-10-17T11:58:09.754Z,101591.06
2022-10-17T12:00:54.453Z,101578.53
2022-10-17T12:03:55.135Z,101554.97
2022-10-17T12:06:42.933Z,101561.56
2022-10-17T12:09:31.243Z,101568.44
2022-10-17T12:11:58.763Z,101560.91
2022-10-17T12:14:41.399Z,101555.41
2022-10-17T12:17:25.889Z,101554.03
2022-10-17T12:19:52.435Z,101562.28
2022-10-17T12:22:26.012Z,101580.81
2022-10-17T12:24:58.605Z,101559.13
2022-10-17T12:27:32.738Z,101547.69
2022-10-17T12:30:01.251Z,101547.34
2022-10-17T12:32:30.328Z,101570.34
2022-10-17T12:35:03.518Z,101572.91
2022-10-17T12:37:45.128Z,101571.34
2022-10-17T12:40:36.429Z,101575.97
2022-10-17T12:43:15.334Z,101578.59
2022-10-17T12:45:48.773Z,101597.53
2022-10-17T12:48:33.624Z,101633.13
2022-10-17T12:53:59.717Z,101656.97
2022-10-17T12:56:41.483Z,101635.38
2022-10-17T12:59:13.843Z,101630.38
2022-10-17T13:01:44.315Z,101612.53
2022-10-17T13:04:11.115Z,101594.78
2022-10-17T13:06:43.934Z,101600.50
2022-10-17T13:09:27.043Z,101610.66
2022-10-17T13:11:54.430Z,101626.56
2022-10-17T13:14:22.229Z,101636.34
2022-10-17T13:16:56.845Z,101636.41
2022-10-17T13:19:44.564Z,101660.44
2022-10-17T13:22:18.617Z,101676.59
2022-10-17T13:24:45.210Z,101676.03
2022-10-17T13:27:29.767Z,101666.59
2022-10-17T13:29:59.853Z,101646.03
2022-10-17T13:32:39.259Z,101643.53
2022-10-17T13:35:17.278Z,101636.22
2022-10-17T13:37:49.185Z,101633.94
2022-10-17T13:40:44.049Z,101626.81
2022-10-17T13:43:24.245Z,101622.66
2022-10-17T13:46:36.805Z,101606.94
2022-10-17T13:49:12.005Z,101576.34
2022-10-17T13:51:43.078Z,101597.28
2022-10-17T13:54:33.331Z,101587.63
2022-10-17T13:57:01.282Z,101591.25
2022-10-17T13:59:34.461Z,101586.06
2022-10-17T14:02:02.026Z,101584.75
2022-10-17T14:04:40.013Z,101578.13
2022-10-17T14:07:25.094Z,101584.28
2022-10-17T14:09:51.794Z,101608.16
2022-10-17T14:12:19.476Z,101624.94
2022-10-17T14:15:09.654Z,101629.38
2022-10-17T14:17:38.567Z,101647.78
2022-10-17T14:20:26.623Z,101675.69
2022-10-17T14:23:17.892Z,101671.16
2022-10-17T14:25:40.691Z,101664.50
2022-10-17T14:28:09.183Z,101659.13
2022-10-17T14:30:55.852Z,101659.81
2022-10-17T14:33:26.306Z,101666.28
2022-10-17T14:35:54.217Z,101676.88
2022-10-17T14:38:21.189Z,101669.59
2022-10-17T14:41:41.422Z,101674.81
2022-10-17T14:43:57.538Z,101670.69
2022-10-17T14:46:24.512Z,101672.06
2022-10-17T14:48:56.446Z,101680.38
2022-10-17T14:51:23.035Z,101683.91
2022-10-17T14:54:20.150Z,101691.75
2022-10-17T14:56:52.578Z,101695.59
2022-10-17T14:59:51.669Z,101694.50
2022-10-17T15:02:09.737Z,101695.78
2022-10-17T15:04:36.206Z,101712.09
2022-10-17T15:07:02.664Z,101712.06
2022-10-17T15:09:29.129Z,101706.56
2022-10-17T15:11:56.143Z,101704.06
2022-10-17T15:14:22.592Z,101714.66
2022-10-17T15:16:49.036Z,101713.97
2022-10-17T15:19:15.515Z,101712.06
2022-10-17T15:21:46.912Z,101712.31
2022-10-17T15:24:15.081Z,101712.09
2022-10-17T15:26:41.699Z,101719.13
2022-10-17T15:29:14.252Z,101726.16
2022-10-17T15:31:41.529Z,101730.50
2022-10-17T15:34:07.998Z,101730.84
2022-10-17T15:36:39.380Z,101731.66
2022-10-17T15:39:06.027Z,101731.59
2022-10-17T15:41:33.121Z,101729.72
2022-10-17T15:44:00.227Z,101727.19
2022-10-17T15:46:28.624Z,101729.81
2022-10-17T15:48:55.880Z,101739.59
2022-10-17T15:51:22.865Z,101743.88
2022-10-17T15:53:49.330Z,101741.13
2022-10-17T15:56:36.768Z,101753.72
2022-10-17T15:59:05.693Z,101756.44
2022-10-17T16:01:33.294Z,101751.22
2022-10-17T16:04:00.145Z,101756.41
2022-10-17T16:06:27.107Z,101761.63
2022-10-17T16:08:53.666Z,101760.75
2022-10-17T16:11:40.888Z,101767.88
2022-10-17T16:14:11.538Z,101772.41
2022-10-17T16:16:38.134Z,101763.56
2022-10-17T16:19:04.922Z,101756.22
2022-10-17T16:21:34.164Z,101765.09
2022-10-17T16:24:00.736Z,101773.03
2022-10-17T16:26:28.077Z,101766.16
2022-10-17T16:28:56.013Z,101773.16
2022-10-17T16:31:25.296Z,101777.53
2022-10-17T16:33:53.430Z,101784.53
2022-10-17T16:36:20.389Z,101786.34
2022-10-17T16:38:47.418Z,101785.44
2022-10-17T16:41:21.439Z,101781.94
2022-10-17T16:43:49.431Z,101795.00
2022-10-17T16:46:16.375Z,101796.78
2022-10-17T16:48:44.017Z,101799.38
2022-10-17T16:51:11.857Z,101800.34
2022-10-17T16:53:44.718Z,101803.03
2022-10-17T16:56:13.452Z,101805.50
2022-10-17T16:58:41.360Z,101809.00
2022-10-17T17:01:16.675Z,101809.84
2022-10-17T17:03:44.968Z,101823.31
2022-10-17T17:06:19.102Z,101817.91
2022-10-17T17:08:45.629Z,101812.63
2022-10-17T17:11:15.777Z,101821.47
2022-10-17T17:13:42.379Z,101830.31
2022-10-17T17:16:14.774Z,101820.50
2022-10-17T17:18:41.769Z,101825.13
2022-10-17T17:21:10.032Z,101828.44
2022-10-17T17:23:38.627Z,101832.22
2022-10-17T17:26:07.620Z,101855.13
2022-10-17T17:28:34.989Z,101862.22
2022-10-17T17:31:01.884Z,101866.59
2022-10-17T17:33:30.187Z,101871.91
2022-10-17T17:36:01.713Z,101876.28
2022-10-17T17:38:29.623Z,101883.31
2022-10-17T17:40:56.145Z,101878.03
2022-10-17T17:43:22.743Z,101872.75
2022-10-17T17:45:49.250Z,101870.91
2022-10-17T17:48:16.167Z,101871.00
2022-10-17T17:50:43.526Z,101874.53
2022-10-17T17:53:11.920Z,101882.41
2022-10-17T17:55:38.742Z,101879.78
2022-10-17T17:58:05.388Z,101870.97
2022-10-17T18:00:31.904Z,101876.25
2022-10-17T18:02:58.357Z,101874.50
2022-10-17T18:05:24.888Z,101877.16
2022-10-17T18:07:51.466Z,101880.66
2022-10-17T18:10:17.984Z,101880.66
2022-10-17T18:12:44.413Z,101875.38
2022-10-17T18:15:11.088Z,101883.31
2022-10-17T18:17:38.174Z,101892.97
2022-10-17T18:20:05.881Z,101893.84
2022-10-17T18:22:33.924Z,101898.25
2022-10-17T18:25:00.375Z,101902.66
2022-10-17T18:27:26.829Z,101893.00
2022-10-17T18:29:55.457Z,101901.75
2022-10-17T18:32:22.114Z,101898.25
2022-10-17T18:34:51.920Z,101912.34
2022-10-17T18:37:18.524Z,101912.31
2022-10-17T18:39:45.157Z,101908.78
2022-10-17T18:42:11.951Z,101911.44
2022-10-17T18:44:38.430Z,101909.66
2022-10-17T18:47:04.918Z,101907.94
2022-10-17T18:49:31.496Z,101909.69
2022-10-17T18:51:59.489Z,101917.59
2022-10-17T18:54:26.452Z,101923.75
2022-10-17T18:56:54.479Z,101920.22
2022-10-17T18:59:21.449Z,101929.91
2022-10-17T19:01:48.061Z,101922.00
2022-10-17T19:04:15.278Z,101922.84
2022-10-17T19:06:41.832Z,101928.16
2022-10-17T19:09:10.873Z,101932.56
2022-10-17T19:11:38.038Z,101938.69
2022-10-17T19:14:14.422Z,101943.09
2022-10-17T19:16:47.735Z,101934.31
2022-10-17T19:19:22.088Z,101939.53
2022-10-17T19:21:49.133Z,101949.19
2022-10-17T19:24:27.839Z,101950.09
2022-10-17T19:26:57.296Z,101948.22
2022-10-17T19:29:26.391Z,101955.28
2022-10-17T19:34:25.549Z,101957.13
2022-10-17T19:36:52.432Z,101951.84
2022-10-17T19:39:21.026Z,101971.16
2022-10-17T19:41:48.434Z,101971.09
2022-10-17T19:44:15.967Z,101977.19
2022-10-17T19:46:46.607Z,101976.31
2022-10-17T19:49:13.992Z,101976.38
2022-10-17T19:51:41.024Z,101972.00
2022-10-17T19:54:07.500Z,101981.66
2022-10-17T19:56:38.224Z,101989.50
2022-10-17T19:59:06.272Z,101989.56
2022-10-17T20:01:36.577Z,101986.06
2022-10-17T20:04:03.411Z,101998.38
2022-10-17T20:06:30.570Z,101986.00
2022-10-17T20:08:57.131Z,101990.34
2022-10-17T20:11:26.522Z,101999.22
2022-10-17T20:13:54.558Z,101999.94
2022-10-17T20:16:24.602Z,102004.41
2022-10-17T20:18:55.869Z,102013.19
2022-10-17T20:21:27.885Z,102009.78
2022-10-17T20:23:55.259Z,102017.59
2022-10-17T20:26:36.526Z,102025.22
2022-10-17T20:29:06.030Z,102016.66
2022-10-17T20:31:36.290Z,102022.75
2022-10-17T20:34:03.603Z,102020.84
2022-10-17T20:36:30.267Z,102028.91
2022-10-17T20:38:58.065Z,102023.63
2022-10-17T20:41:25.475Z,102028.09
2022-10-17T20:43:53.337Z,102028.81
2022-10-17T20:46:36.215Z,102029.66
2022-10-17T20:49:07.644Z,102032.34
2022-10-17T20:51:34.877Z,102047.41
2022-10-17T20:54:02.537Z,102047.44
2022-10-17T20:56:30.551Z,102053.53
2022-10-17T20:58:59.525Z,102047.47
2022-10-17T21:01:26.917Z,102053.53
2022-10-17T21:03:53.441Z,102059.59
2022-10-17T21:06:20.964Z,102068.53
2022-10-17T21:08:47.717Z,102075.59
2022-10-17T21:11:17.599Z,102078.09
2022-10-17T21:13:45.361Z,102074.56
2022-10-17T21:16:17.524Z,102067.78
2022-10-17T21:18:44.773Z,102063.22
2022-10-17T21:21:23.489Z,102069.31
2022-10-17T21:23:50.961Z,102066.75
2022-10-17T21:26:18.171Z,102072.91
2022-10-17T21:28:46.024Z,102073.91
2022-10-17T21:31:19.160Z,102076.38
2022-10-17T21:33:49.806Z,102067.63
2022-10-17T21:36:17.376Z,102075.63
2022-10-17T21:38:45.785Z,102075.66
2022-10-17T21:41:14.125Z,102082.66
2022-10-17T21:43:41.296Z,102084.34
2022-10-17T21:46:10.510Z,102092.22
2022-10-17T21:48:37.460Z,102094.66
2022-10-17T21:51:06.580Z,102089.63
2022-10-17T21:53:33.597Z,102083.44
2022-10-17T21:56:01.721Z,102072.75
2022-10-17T21:58:28.993Z,102084.31
2022-10-17T22:01:13.971Z,102085.84
2022-10-17T22:03:46.786Z,102088.59
2022-10-17T22:06:38.668Z,102084.28
2022-10-17T22:09:07.554Z,102079.75
2022-10-17T22:11:35.188Z,102084.66
2022-10-17T22:14:04.640Z,102088.38
2022-10-17T22:16:31.637Z,102094.38
2022-10-17T22:19:03.161Z,102098.03
2022-10-17T22:21:32.580Z,102102.53
2022-10-17T22:24:01.399Z,102104.97
2022-10-17T22:26:29.474Z,102099.91
2022-10-17T22:28:56.597Z,102106.94
2022-10-17T22:31:23.518Z,102104.34
2022-10-17T22:33:50.253Z,102106.97
2022-10-17T22:36:16.982Z,102105.19
2022-10-17T22:38:43.473Z,102106.03
2022-10-17T22:41:09.936Z,102097.16
2022-10-17T22:43:36.434Z,102093.63
2022-10-17T22:46:04.750Z,102103.28
2022-10-17T22:48:31.630Z,102109.44
2022-10-17T22:50:59.786Z,102106.81
2022-10-17T22:53:27.030Z,102105.16
2022-10-17T22:55:54.769Z,102098.06
2022-10-17T22:58:21.602Z,102104.94
2022-10-17T23:00:49.351Z,102108.31
2022-10-17T23:03:16.044Z,102097.94
2022-10-17T23:05:43.216Z,102106.94
2022-10-17T23:08:10.210Z,102105.88
2022-10-17T23:10:36.709Z,102106.78
2022-10-17T23:13:03.679Z,102108.31
2022-10-17T23:15:34.065Z,102104.09
2022-10-17T23:18:01.345Z,102104.22
2022-10-17T23:20:28.780Z,102111.91
2022-10-17T23:22:55.481Z,102106.78
2022-10-17T23:25:22.307Z,102099.63
2022-10-17T23:27:48.857Z,102107.41
2022-10-17T23:30:15.747Z,102105.81
2022-10-17T23:32:42.306Z,102094.44
2022-10-17T23:35:09.690Z,102106.56
2022-10-17T23:37:36.761Z,102108.53
2022-10-17T23:40:04.674Z,102115.34
2022-10-17T23:42:31.614Z,102110.16
2022-10-17T23:44:58.074Z,102105.75
2022-10-17T23:47:24.595Z,102116.25
2022-10-17T23:49:51.050Z,102112.56
2022-10-17T23:52:17.492Z,102110.16
2022-10-17T23:54:43.967Z,102117.97
2022-10-17T23:57:10.438Z,102111.97
2022-10-17T23:59:36.987Z,102113.56
